Upper Lake, CA

10:22 PM PST on December 24, 2014 (GMT -0800)
Chico Municipal | Change Station
CLOSE
Current Station
Airport
Location: Chico,
Elevation: 240 ft
Nearby Weather Stations

Elev 240 ft 39.80 °N, 121.86 °W | Updated 3 hours ago

Clear
Clear
46 °F
Feels Like 42 °F
N
8
Wind Variable Wind from NW

Today
High -- | Low -- °F
--% Chance of Precip.
Yesterday
High -- | Low -- °F
Precip. -- in
7:28 AM 4:53 PM
Waxing Crescent, 14% visible
Pressure 29.96 in
Visibility 10.0 miles
Clouds Few 4000 ft
Scattered Clouds 10000 ft
Windchill 42 °F
Dew Point 39 °F
Humidity 76%
Rainfall 0.00 in
Snow Depth Not available.
UV 0 out of 12
Pollen 3.80 out of 12
Air Quality Not available.
Flu Activity Not available.
METAR KCIC 250249Z 32007KT 10SM FEW040 SCT100 08/04 A2996

More Conditions Fewer Conditions

Pressure 29.96 in
Visibility 10.0 miles
Clouds Few 4000 ft
Scattered Clouds 10000 ft
Windchill 42 °F
Dew Point 39 °F
Humidity 76%
Rainfall 0.00 in
Snow Depth Not available.
UV 0 out of 12
Pollen 3.80 out of 12
Air Quality Not available.
Flu Activity Not available.
METAR KCIC 250249Z 32007KT 10SM FEW040 SCT100 08/04 A2996

More Conditions Fewer Conditions

10-Day Weather Forecast

Almanac

Astronomy

Dec. 24, 2014 Rise Set
Actual Time
Civil Twilight
Nautical Twilight
Astronomical Twilight
Moon
Length of Visible Light
Length of Day
Tomorrow will be .
, % of the Moon is Illuminated

Today's Extremes

State Highs State Lows

Community

WunderPhotos

Upload Photos

1,780,247 photos uploaded!

WunderBlogs® & News

Nearby

Air Quality

  Air Quality AQ Index Pollutant
Not available.

Snow Depth

Station Depth Elevation

Earthquake Activity

City Distance Mag. Time & Date
Minimum magnitude displayed is 2.5.

Coastal Water Temperatures

Place Temperature

Nearby Weather Stations